Time;durP1;ratioP1;P1;durP2;ratioP2;P2;SDS_P1;SDS_P2;PMS_P1;PMS_P2;Temp;Humidity;BMP_temperature;BMP_pressure;BME280_temperature;BME280_humidity;BME280_pressure;Samples;Min_cycle;Max_cycle;Signal;HPM_P1;HPM_P2
2023/01/14 00:04:35;;;;;;;4.72;0.82;;;7.20;99.90;;;;;;6172521;23;20108;-91
2023/01/14 00:07:36;;;;;;;0.00;0.00;;;7.40;99.90;;;;;;6194536;23;20016;-91
2023/01/14 00:10:20;;;;;;;0.00;0.00;;;7.20;99.90;;;;;;6167879;23;20024;-90
2023/01/14 00:13:04;;;;;;;0.00;0.00;;;7.10;99.90;;;;;;6125270;23;20016;-90
2023/01/14 00:16:07;;;;;;;0.10;0.10;;;7.20;99.90;;;;;;6146890;23;20028;-91
2023/01/14 00:18:38;;;;;;;;;;;7.20;99.90;;;;;;6175437;23;20020;-90
2023/01/14 00:21:43;;;;;;;;;;;;;;;;;;;;;
2023/01/14 00:24:44;;;;;;;0.00;0.00;;;7.20;99.90;;;;;;6205443;23;20012;-91
2023/01/14 00:27:15;;;;;;;0.17;0.17;;;7.20;99.90;;;;;;6192535;23;20028;-91
2023/01/14 00:29:51;;;;;;;0.20;0.17;;;7.30;99.90;;;;;;6167965;23;20052;-91
2023/01/14 00:32:29;;;;;;;0.00;0.00;;;7.20;99.90;;;;;;6168107;23;20447;-91
2023/01/14 00:35:06;;;;;;;6.88;0.65;;;7.10;99.90;;;;;;6120868;23;20027;-91
2023/01/14 00:37:45;;;;;;;0.00;0.00;;;7.20;99.90;;;;;;6168041;23;20020;-91
2023/01/14 00:40:21;;;;;;;0.10;0.10;;;7.10;99.90;;;;;;6192100;23;20016;-91
2023/01/14 00:43:03;;;;;;;;;;;;;;;;;;;;;
2023/01/14 00:46:06;;;;;;;0.30;0.30;;;7.30;99.90;;;;;;6193385;23;20067;-91
2023/01/14 00:49:05;;;;;;;;;;;;;;;;;;;;;
2023/01/14 00:52:02;;;;;;;0.00;0.00;;;7.10;99.90;;;;;;6192199;23;20017;-90
2023/01/14 00:54:58;;;;;;;0.15;0.15;;;7.10;99.90;;;;;;6148426;23;20004;-90
2023/01/14 00:58:04;;;;;;;;;;;;;;;;;;;;;
2023/01/14 01:01:02;;;;;;;0.43;0.32;;;7.10;99.90;;;;;;6192239;23;20012;-90
2023/01/14 01:04:18;;;;;;;1.13;0.40;;;7.10;99.90;;;;;;6149028;23;20020;-91
2023/01/14 01:07:17;;;;;;;0.00;0.00;;;7.10;99.90;;;;;;6162835;23;20062;-90
2023/01/14 01:10:13;;;;;;;0.00;0.00;;;7.10;99.90;;;;;;6192263;23;20016;-91
2023/01/14 01:16:33;;;;;;;;;;;;;;;;;;;;;
2023/01/14 01:23:13;;;;;;;;;;;;;;;;;;;;;
2023/01/14 01:26:03;;;;;;;0.00;0.00;;;7.20;99.90;;;;;;6188674;23;20017;-90
2023/01/14 01:28:45;;;;;;;;;;;;;;;;;;;;;
2023/01/14 01:37:55;;;;;;;0.10;0.10;;;7.30;99.90;;;;;;6193863;23;20024;-90
2023/01/14 01:40:55;;;;;;;1.10;0.20;;;7.30;99.90;;;;;;6176150;23;20027;-91
2023/01/14 01:44:07;;;;;;;0.00;0.00;;;7.30;99.90;;;;;;6156108;23;20096;-90
2023/01/14 01:50:20;;;;;;;1.30;0.20;;;7.30;99.90;;;;;;6165990;23;20021;-90
2023/01/14 01:53:12;;;;;;;;;;;;;;;;;;;;;
2023/01/14 01:55:53;;;;;;;;;;;;;;;;;;;;;
2023/01/14 01:59:11;;;;;;;0.13;0.13;;;7.30;99.90;;;;;;6199207;23;20044;-91
2023/01/14 02:05:49;;;;;;;;;;;;;;;;;;;;;
2023/01/14 02:09:07;;;;;;;;;;;;;;;;;;;;;
2023/01/14 02:15:45;;;;;;;;;;;;;;;;;;;;;
2023/01/14 02:18:50;;;;;;;0.00;0.00;;;7.30;99.90;;;;;;6044778;23;20019;-91
2023/01/14 02:28:15;;;;;;;0.10;0.10;;;7.40;99.90;;;;;;6173114;23;20020;-90
2023/01/14 02:31:43;;;;;;;0.05;0.00;;;7.40;99.90;;;;;;6167338;23;20023;-91
2023/01/14 02:34:44;;;;;;;;;;;;;;;;;;;;;
2023/01/14 02:37:34;;;;;;;0.00;0.00;;;7.40;99.90;;;;;;6176114;23;20026;-91
2023/01/14 02:40:30;;;;;;;0.40;0.20;;;7.40;99.90;;;;;;6167165;23;21895;-91
2023/01/14 02:49:29;;;;;;;0.00;0.00;;;7.40;99.90;;;;;;6179958;23;20025;-90
2023/01/14 02:52:24;;;;;;;3.30;0.43;;;7.40;99.90;;;;;;6167345;23;20092;-90
2023/01/14 02:55:21;;;;;;;0.00;0.00;;;7.40;99.90;;;;;;6166523;23;20051;-91
2023/01/14 02:58:16;;;;;;;0.00;0.00;;;7.40;99.90;;;;;;6171244;23;20021;-90
2023/01/14 03:00:44;;;;;;;;;;;7.40;99.90;;;;;;6167124;23;20023;-90
2023/01/14 03:03:48;;;;;;;0.32;0.10;;;7.40;99.90;;;;;;6167275;23;19943;-91
2023/01/14 03:06:25;;;;;;;0.00;0.00;;;7.50;99.90;;;;;;6169563;23;20044;-90
2023/01/14 03:09:06;;;;;;;;;;;;;;;;;;;;;
2023/01/14 03:12:07;;;;;;;2.55;0.75;;;7.40;99.90;;;;;;6191744;23;20048;-91
2023/01/14 03:15:19;;;;;;;0.00;0.00;;;7.40;99.90;;;;;;6169091;23;20072;-91
2023/01/14 03:18:35;;;;;;;0.00;0.00;;;7.30;99.90;;;;;;6073558;23;20058;-91
2023/01/14 03:21:39;;;;;;;;;;;;;;;;;;;;;
2023/01/14 03:24:30;;;;;;;0.00;0.00;;;7.30;99.90;;;;;;6075074;23;20336;-90
2023/01/14 03:27:18;;;;;;;;;;;;;;;;;;;;;
2023/01/14 03:30:07;;;;;;;;;;;;;;;;;;;;;
2023/01/14 03:33:09;;;;;;;;;;;;;;;;;;;;;
2023/01/14 03:36:10;;;;;;;0.45;0.32;;;6.90;99.90;;;;;;6188502;23;20012;-90
2023/01/14 03:39:16;;;;;;;0.10;0.10;;;6.70;99.90;;;;;;6194365;23;20533;-90
2023/01/14 03:42:22;;;;;;;0.00;0.00;;;6.70;99.90;;;;;;6105750;23;20096;-91
2023/01/14 03:45:21;;;;;;;0.00;0.00;;;6.70;99.90;;;;;;6168371;23;20017;-90
2023/01/14 03:48:01;;;;;;;0.00;0.00;;;6.60;99.90;;;;;;6192289;23;20099;-91
2023/01/14 03:50:37;;;;;;;0.00;0.00;;;6.60;99.90;;;;;;6145318;23;20075;-91
2023/01/14 03:53:25;;;;;;;;;;;;;;;;;;;;;
2023/01/14 03:56:24;;;;;;;0.22;0.22;;;6.60;99.90;;;;;;6192922;23;20020;-90
2023/01/14 03:59:02;;;;;;;0.00;0.00;;;6.60;99.90;;;;;;6158796;23;20020;-90
2023/01/14 04:01:41;;;;;;;;;;;;;;;;;;;;;
2023/01/14 04:04:29;;;;;;;1.17;0.45;;;6.50;99.90;;;;;;6193446;23;19938;-91
2023/01/14 04:07:20;;;;;;;0.00;0.00;;;6.50;99.90;;;;;;6168804;23;20375;-91
2023/01/14 04:10:25;;;;;;;;;;;;;;;;;;;;;
2023/01/14 04:16:31;;;;;;;0.22;0.22;;;6.50;99.90;;;;;;6172803;23;20451;-91
2023/01/14 04:19:16;;;;;;;0.00;0.00;;;6.50;99.90;;;;;;6145646;23;20016;-90
2023/01/14 04:22:05;;;;;;;1.38;0.70;;;6.50;99.90;;;;;;6127601;23;20020;-91
2023/01/14 04:25:09;;;;;;;;;;;;;;;;;;;;;
2023/01/14 04:27:58;;;;;;;1.13;0.40;;;6.50;99.90;;;;;;6174604;23;20039;-90
2023/01/14 04:37:39;;;;;;;;;;;;;;;;;;;;;
2023/01/14 04:40:31;;;;;;;0.10;0.10;;;6.40;99.90;;;;;;6150960;23;20024;-90
2023/01/14 04:43:11;;;;;;;0.35;0.22;;;6.60;99.90;;;;;;6175741;23;20104;-91
2023/01/14 04:46:20;;;;;;;;;;;;;;;;;;;;;
2023/01/14 04:49:19;;;;;;;0.00;0.00;;;6.40;99.90;;;;;;6213161;23;20024;-90
2023/01/14 04:52:12;;;;;;;2.08;0.45;;;6.40;99.90;;;;;;6151888;23;20427;-91
2023/01/14 04:54:53;;;;;;;;;;;;;;;;;;;;;
2023/01/14 04:57:57;;;;;;;;;;;;;;;;;;;;;
2023/01/14 05:00:36;;;;;;;0.00;0.00;;;6.30;99.90;;;;;;6170489;23;20023;-91
2023/01/14 05:03:21;;;;;;;0.00;0.00;;;6.30;99.90;;;;;;6167794;23;20020;-91
2023/01/14 05:12:14;;;;;;;0.00;0.00;;;6.20;99.90;;;;;;6149260;23;20028;-91
2023/01/14 05:15:07;;;;;;;;;;;;;;;;;;;;;
2023/01/14 05:20:56;;;;;;;;;;;;;;;;;;;;;
2023/01/14 05:23:46;;;;;;;;;;;;;;;;;;;;;
2023/01/14 05:26:45;;;;;;;;;;;;;;;;;;;;;
2023/01/14 05:32:26;;;;;;;;;;;;;;;;;;;;;
2023/01/14 05:35:40;;;;;;;0.65;0.65;;;6.10;99.90;;;;;;6196836;23;20075;-90
2023/01/14 05:48:11;;;;;;;0.17;0.17;;;6.10;99.90;;;;;;6174974;23;20529;-90
2023/01/14 05:51:32;;;;;;;;;;;;;;;;;;;;;
2023/01/14 05:54:14;;;;;;;1.33;0.75;;;6.10;99.90;;;;;;6192117;23;20019;-91
2023/01/14 05:57:46;;;;;;;;;;;;;;;;;;;;;
2023/01/14 06:06:51;;;;;;;0.00;0.00;;;6.00;99.90;;;;;;6171788;23;20021;-89
2023/01/14 06:09:39;;;;;;;7.38;2.50;;;5.90;99.90;;;;;;6160820;23;20016;-91
2023/01/14 06:13:24;;;;;;;0.00;0.00;;;6.00;99.90;;;;;;6145115;23;20518;-90
2023/01/14 06:16:02;;;;;;;0.38;0.38;;;6.00;99.90;;;;;;6159746;23;20021;-90
2023/01/14 06:19:09;;;;;;;1.30;0.03;;;6.10;99.90;;;;;;6191249;23;20024;-90
2023/01/14 06:22:11;;;;;;;;;;;;;;;;;;;;;
2023/01/14 06:28:05;;;;;;;11.77;0.63;;;6.10;99.90;;;;;;6138663;23;20426;-91
2023/01/14 06:30:43;;;;;;;;;;;;;;;;;;;;;
2023/01/14 06:33:26;;;;;;;1.08;0.10;;;6.00;99.90;;;;;;6191980;23;20021;-90
2023/01/14 06:36:40;;;;;;;;;;;;;;;;;;;;;
2023/01/14 06:39:40;;;;;;;2.27;0.97;;;6.00;99.90;;;;;;6185235;23;20020;-91
2023/01/14 06:42:16;;;;;;;;;;;;;;;;;;;;;
2023/01/14 06:48:42;;;;;;;0.00;0.00;;;6.00;99.90;;;;;;6177858;23;20016;-92
2023/01/14 06:51:44;;;;;;;;;;;;;;;;;;;;;
2023/01/14 06:55:01;;;;;;;;;;;;;;;;;;;;;
2023/01/14 06:58:06;;;;;;;;;;;;;;;;;;;;;
2023/01/14 07:01:21;;;;;;;0.00;0.00;;;6.10;99.90;;;;;;6185735;23;20034;-93
2023/01/14 07:06:59;;;;;;;;;;;;;;;;;;;;;
2023/01/14 07:09:51;;;;;;;;;;;;;;;;;;;;;
2023/01/14 07:12:53;;;;;;;;;;;;;;;;;;;;;
2023/01/14 07:15:55;;;;;;;;;;;;;;;;;;;;;
2023/01/14 07:19:03;;;;;;;;;;;;;;;;;;;;;
2023/01/14 07:22:12;;;;;;;10.13;2.50;;;6.20;99.90;;;;;;6192358;23;20418;-91
2023/01/14 07:25:07;;;;;;;;;;;;;;;;;;;;;
2023/01/14 07:28:03;;;;;;;;;;;;;;;;;;;;;
2023/01/14 07:31:22;;;;;;;0.00;0.00;;;6.30;99.90;;;;;;6174836;23;20012;-92
2023/01/14 07:34:08;;;;;;;0.00;0.00;;;6.40;99.90;;;;;;6159870;23;20095;-91
2023/01/14 07:39:46;;;;;;;0.20;0.20;;;6.30;99.90;;;;;;6193734;23;20023;-91
2023/01/14 07:42:48;;;;;;;0.00;0.00;;;6.40;99.90;;;;;;6168594;23;20070;-93
2023/01/14 07:46:02;;;;;;;1.98;0.40;;;6.30;99.90;;;;;;6201250;23;20061;-90
2023/01/14 07:48:51;;;;;;;0.28;0.28;;;6.30;99.90;;;;;;6155913;23;20016;-93
2023/01/14 07:52:39;;;;;;;6.28;0.30;;;6.30;99.90;;;;;;6167944;23;20368;-92
2023/01/14 08:02:49;;;;;;;;;;;;;;;;;;;;;
2023/01/14 08:09:58;;;;;;;;;;;;;;;;;;;;;
2023/01/14 08:19:51;;;;;;;;;;;;;;;;;;;;;
2023/01/14 08:26:43;;;;;;;0.00;0.00;;;6.50;99.90;;;;;;6183553;23;20053;-94
2023/01/14 09:00:45;;;;;;;;;;;;;;;;;;;;;
2023/01/14 09:24:15;;;;;;;;;;;;;;;;;;;;;
2023/01/14 09:37:19;;;;;;;;;;;;;;;;;;;;;
2023/01/14 09:43:34;;;;;;;0.00;0.00;;;6.60;99.90;;;;;;6132969;23;20193;-90
2023/01/14 09:49:46;;;;;;;0.25;0.25;;;6.60;99.90;;;;;;6140497;23;20088;-90
2023/01/14 09:53:30;;;;;;;;;;;;;;;;;;;;;
2023/01/14 09:56:33;;;;;;;;;;;;;;;;;;;;;
2023/01/14 10:00:11;;;;;;;;;;;;;;;;;;;;;
2023/01/14 10:03:39;;;;;;;0.00;0.00;;;6.70;99.90;;;;;;6057707;23;20017;-90
2023/01/14 10:10:35;;;;;;;;;;;;;;;;;;;;;
2023/01/14 10:17:40;;;;;;;;;;;;;;;;;;;;;
2023/01/14 10:36:48;;;;;;;4.10;1.50;;;6.80;99.90;;;;;;5994739;23;20502;-89
2023/01/14 10:43:55;;;;;;;0.00;0.00;;;6.90;99.90;;;;;;5919554;24;20031;-90
2023/01/14 10:46:45;;;;;;;0.20;0.17;;;7.00;99.90;;;;;;5997438;23;20409;-90
2023/01/14 10:49:56;;;;;;;;;;;;;;;;;;;;;
2023/01/14 10:52:52;;;;;;;;;;;7.10;99.90;;;;;;6158935;23;20017;-89
2023/01/14 10:56:04;;;;;;;0.00;0.00;;;7.30;99.90;;;;;;6153061;23;19916;-92
2023/01/14 10:59:20;;;;;;;;;;;;;;;;;;;;;
2023/01/14 11:02:00;;;;;;;0.00;0.00;;;7.20;99.90;;;;;;6123391;23;20018;-89
2023/01/14 11:07:50;;;;;;;0.00;0.00;;;7.30;99.90;;;;;;6111255;23;20053;-91
2023/01/14 11:10:22;;;;;;;0.00;0.00;;;7.30;99.90;;;;;;6133177;23;20021;-90
2023/01/14 11:16:06;;;;;;;0.00;0.00;;;7.40;99.90;;;;;;6117657;23;20018;-90
2023/01/14 11:19:00;;;;;;;0.00;0.00;;;7.40;99.90;;;;;;6109075;23;20129;-90
2023/01/14 11:21:49;;;;;;;0.00;0.00;;;7.40;99.90;;;;;;6086416;23;20024;-90
2023/01/14 11:25:04;;;;;;;0.00;0.00;;;7.40;99.90;;;;;;6105685;23;20029;-90
2023/01/14 11:28:29;;;;;;;;;;;;;;;;;;;;;
2023/01/14 11:31:40;;;;;;;0.00;0.00;;;7.40;99.90;;;;;;6132045;23;20021;-90
2023/01/14 11:38:11;;;;;;;0.55;0.15;;;7.50;99.90;;;;;;6105053;23;20036;-91
2023/01/14 11:47:43;;;;;;;;;;;;;;;;;;;;;
2023/01/14 11:50:20;;;;;;;0.00;0.00;;;7.50;99.90;;;;;;6044140;23;20018;-90
2023/01/14 11:53:54;;;;;;;;;;;;;;;;;;;;;
2023/01/14 11:57:22;;;;;;;;;;;;;;;;;;;;;
2023/01/14 12:00:20;;;;;;;0.00;0.00;;;7.60;99.90;;;;;;6163248;23;20455;-92
2023/01/14 12:03:10;;;;;;;0.00;0.00;;;7.60;99.90;;;;;;6125897;23;20021;-90
2023/01/14 12:06:30;;;;;;;;;;;;;;;;;;;;;
2023/01/14 12:09:28;;;;;;;0.00;0.00;;;7.70;99.90;;;;;;6157100;23;20479;-89
2023/01/14 12:16:48;;;;;;;0.13;0.13;;;7.70;99.90;;;;;;6168926;23;20060;-90
2023/01/14 12:19:15;;;;;;;;;;;;;;;;;;;;;
2023/01/14 12:22:25;;;;;;;0.00;0.00;;;7.80;99.90;;;;;;6160488;23;20091;-91
2023/01/14 12:25:34;;;;;;;;;;;;;;;;;;;;;
2023/01/14 12:29:00;;;;;;;;;;;;;;;;;;;;;
2023/01/14 12:35:17;;;;;;;0.00;0.00;;;7.90;99.90;;;;;;6153284;23;20108;-90
2023/01/14 12:45:41;;;;;;;0.30;0.13;;;8.00;99.90;;;;;;6145287;23;20351;-89
2023/01/14 12:48:42;;;;;;;0.00;0.00;;;8.10;99.90;;;;;;6161976;23;20160;-90
2023/01/14 12:51:47;;;;;;;0.00;0.00;;;8.10;99.90;;;;;;6132478;23;20021;-91
2023/01/14 12:55:09;;;;;;;;;;;;;;;;;;;;;
2023/01/14 12:58:35;;;;;;;;;;;;;;;;;;;;;
2023/01/14 13:01:57;;;;;;;;;;;;;;;;;;;;;
2023/01/14 13:04:59;;;;;;;0.00;0.00;;;8.20;99.90;;;;;;6153468;23;20017;-91
2023/01/14 13:08:24;;;;;;;;;;;;;;;;;;;;;
2023/01/14 13:17:31;;;;;;;;;;;;;;;;;;;;;
2023/01/14 13:20:28;;;;;;;0.00;0.00;;;8.30;99.90;;;;;;6161502;23;20019;-90
2023/01/14 13:23:35;;;;;;;0.00;0.00;;;8.40;99.90;;;;;;6077580;23;20052;-91
2023/01/14 13:26:45;;;;;;;0.00;0.00;;;8.40;99.90;;;;;;6133609;23;20459;-90
2023/01/14 13:29:27;;;;;;;;;;;;;;;;;;;;;
2023/01/14 13:32:47;;;;;;;;;;;;;;;;;;;;;
2023/01/14 13:39:10;;;;;;;0.00;0.00;;;8.60;99.90;;;;;;6141526;23;20435;-91
2023/01/14 13:43:06;;;;;;;;;;;;;;;;;;;;;
2023/01/14 13:52:50;;;;;;;0.00;0.00;;;8.90;99.90;;;;;;6143733;23;20475;-92
2023/01/14 13:56:24;;;;;;;;;;;;;;;;;;;;;
2023/01/14 14:07:35;;;;;;;;;;;;;;;;;;;;;
2023/01/14 14:10:43;;;;;;;0.00;0.00;;;9.00;99.90;;;;;;6071945;23;20025;-92
2023/01/14 14:14:07;;;;;;;0.00;0.00;;;9.00;99.90;;;;;;6045907;23;20021;-93
2023/01/14 14:17:23;;;;;;;0.00;0.00;;;9.00;99.90;;;;;;5961834;23;20423;-93
2023/01/14 14:24:04;;;;;;;;;;;;;;;;;;;;;
2023/01/14 14:30:59;;;;;;;0.00;0.00;;;9.10;99.90;;;;;;6049141;23;20026;-90
2023/01/14 14:34:12;;;;;;;;;;;;;;;;;;;;;
2023/01/14 14:37:33;;;;;;;0.05;0.05;;;9.10;99.90;;;;;;6057339;23;20401;-90
2023/01/14 14:43:58;;;;;;;0.00;0.00;;;9.10;99.90;;;;;;6073504;23;20097;-89
2023/01/14 14:47:04;;;;;;;;;;;;;;;;;;;;;
2023/01/14 14:49:44;;;;;;;0.00;0.00;;;9.10;99.90;;;;;;6148450;23;20009;-89
2023/01/14 14:59:57;;;;;;;;;;;;;;;;;;;;;
2023/01/14 15:03:29;;;;;;;;;;;;;;;;;;;;;
2023/01/14 15:20:39;;;;;;;;;;;;;;;;;;;;;
2023/01/14 15:30:40;;;;;;;;;;;;;;;;;;;;;
2023/01/14 15:37:18;;;;;;;;;;;;;;;;;;;;;
2023/01/14 15:40:33;;;;;;;0.00;0.00;;;9.40;99.90;;;;;;6143699;23;20093;-92
2023/01/14 15:43:56;;;;;;;0.00;0.00;;;9.40;99.90;;;;;;6158177;23;20026;-92
2023/01/14 15:50:01;;;;;;;;;;;;;;;;;;;;;
2023/01/14 15:53:21;;;;;;;;;;;;;;;;;;;;;
2023/01/14 15:59:33;;;;;;;;;;;;;;;;;;;;;
2023/01/14 16:06:10;;;;;;;0.00;0.00;;;9.60;99.90;;;;;;6069182;23;20029;-90
2023/01/14 16:09:26;;;;;;;0.03;0.00;;;9.50;99.90;;;;;;6015546;23;20468;-91
2023/01/14 16:16:15;;;;;;;0.00;0.00;;;9.60;99.90;;;;;;5956475;23;20378;-91
2023/01/14 16:22:15;;;;;;;;;;;;;;;;;;;;;
2023/01/14 16:31:22;;;;;;;0.17;0.00;;;9.60;99.90;;;;;;6152630;23;20100;-90
2023/01/14 16:34:32;;;;;;;0.00;0.00;;;9.60;99.90;;;;;;6125858;23;20056;-90
2023/01/14 16:37:05;;;;;;;0.00;0.00;;;9.60;99.90;;;;;;6155408;23;20068;-87
2023/01/14 16:43:16;;;;;;;0.40;0.13;;;9.70;99.90;;;;;;6157295;23;20064;-90
2023/01/14 16:46:23;;;;;;;0.00;0.00;;;9.70;99.90;;;;;;6132087;23;20017;-87
2023/01/14 16:49:26;;;;;;;0.00;0.00;;;9.70;99.90;;;;;;6123099;23;20052;-87
2023/01/14 16:52:03;;;;;;;0.00;0.00;;;9.70;99.90;;;;;;6131329;23;20014;-86
2023/01/14 16:54:29;;;;;;;0.00;0.00;;;9.80;99.90;;;;;;6131323;23;20076;-85
2023/01/14 16:57:06;;;;;;;0.00;0.00;;;9.80;99.90;;;;;;6130852;23;20104;-87
2023/01/14 16:59:50;;;;;;;0.15;0.00;;;9.80;99.90;;;;;;6135009;23;20021;-88
2023/01/14 17:05:58;;;;;;;0.00;0.00;;;9.80;99.90;;;;;;6130661;23;20018;-88
2023/01/14 17:09:08;;;;;;;0.00;0.00;;;9.90;99.90;;;;;;6131962;23;20021;-88
2023/01/14 17:14:22;;;;;;;0.00;0.00;;;10.10;99.90;;;;;;6155428;23;19921;-87
2023/01/14 17:16:59;;;;;;;0.03;0.00;;;9.90;99.90;;;;;;6128924;23;20022;-87
2023/01/14 17:19:30;;;;;;;0.00;0.00;;;9.90;99.90;;;;;;6083113;23;20022;-87
2023/01/14 17:22:01;;;;;;;0.05;0.00;;;9.90;99.90;;;;;;6127005;23;20022;-87
2023/01/14 17:24:50;;;;;;;0.00;0.00;;;10.00;99.90;;;;;;6104438;23;20025;-88
2023/01/14 17:27:28;;;;;;;;;;;;;;;;;;;;;
2023/01/14 17:30:00;;;;;;;0.00;0.00;;;10.00;99.90;;;;;;6132295;23;20018;-89
2023/01/14 17:33:25;;;;;;;;;;;;;;;;;;;;;
2023/01/14 17:36:07;;;;;;;;;;;;;;;;;;;;;
2023/01/14 17:38:49;;;;;;;0.00;0.00;;;10.00;99.90;;;;;;6137622;23;20026;-88
2023/01/14 17:46:58;;;;;;;0.00;0.00;;;10.00;99.90;;;;;;6140050;23;20097;-87
2023/01/14 17:49:40;;;;;;;0.00;0.00;;;10.00;99.90;;;;;;6136393;23;20017;-88
2023/01/14 17:56:10;;;;;;;;;;;;;;;;;;;;;
2023/01/14 17:59:05;;;;;;;0.00;0.00;;;10.10;99.90;;;;;;6160611;23;20088;-88
2023/01/14 18:01:45;;;;;;;;;;;;;;;;;;;;;
2023/01/14 18:04:18;;;;;;;0.00;0.00;;;10.10;99.90;;;;;;6158617;23;20407;-88
2023/01/14 18:06:58;;;;;;;0.00;0.00;;;10.10;99.90;;;;;;6134985;23;20076;-87
2023/01/14 18:09:31;;;;;;;0.00;0.00;;;10.20;99.90;;;;;;6112377;23;20092;-87
2023/01/14 18:12:07;;;;;;;0.00;0.00;;;10.20;99.90;;;;;;6135143;23;20076;-87
2023/01/14 18:14:39;;;;;;;0.00;0.00;;;10.20;99.90;;;;;;6112191;23;20017;-87
2023/01/14 18:17:08;;;;;;;0.00;0.00;;;10.20;99.90;;;;;;6134984;23;20017;-87
2023/01/14 18:19:38;;;;;;;0.00;0.00;;;10.20;99.90;;;;;;6134790;23;20347;-87
2023/01/14 18:22:42;;;;;;;0.00;0.00;;;10.30;99.90;;;;;;6132754;23;20019;-87
2023/01/14 18:25:47;;;;;;;0.00;0.00;;;10.30;99.90;;;;;;6132532;23;20025;-89
2023/01/14 18:28:48;;;;;;;;;;;;;;;;;;;;;
2023/01/14 18:31:43;;;;;;;0.00;0.00;;;10.40;99.90;;;;;;6143898;23;20021;-87
2023/01/14 18:34:35;;;;;;;;;;;;;;;;;;;;;
2023/01/14 18:37:12;;;;;;;0.10;0.10;;;10.40;99.90;;;;;;6118716;23;20444;-84
2023/01/14 18:39:40;;;;;;;0.00;0.00;;;10.50;99.90;;;;;;6139038;23;20025;-85
2023/01/14 18:42:06;;;;;;;1.35;0.10;;;10.50;99.90;;;;;;6161405;23;20056;-83
2023/01/14 18:44:47;;;;;;;;;;;;;;;;;;;;;
2023/01/14 18:47:20;;;;;;;1.15;0.08;;;10.50;99.90;;;;;;6162008;23;20448;-87
2023/01/14 18:49:51;;;;;;;0.10;0.10;;;10.50;99.90;;;;;;6161815;23;20358;-86
2023/01/14 18:52:20;;;;;;;0.10;0.10;;;10.50;99.90;;;;;;6161784;23;20351;-87
2023/01/14 18:55:14;;;;;;;2.60;0.15;;;10.60;99.90;;;;;;6113012;23;20444;-85
2023/01/14 19:01:29;;;;;;;;;;;;;;;;;;;;;
2023/01/14 19:04:12;;;;;;;2.00;0.82;;;10.60;99.90;;;;;;6161634;23;20017;-87
2023/01/14 19:07:17;;;;;;;0.10;0.10;;;10.60;99.90;;;;;;6137813;23;20017;-88
2023/01/14 19:10:07;;;;;;;;;;;;;;;;;;;;;
2023/01/14 19:13:30;;;;;;;;;;;;;;;;;;;;;
2023/01/14 19:16:35;;;;;;;0.00;0.00;;;10.60;99.90;;;;;;6162212;23;20332;-89
2023/01/14 19:19:35;;;;;;;0.17;0.17;;;10.60;99.90;;;;;;6156949;23;20507;-89
2023/01/14 19:22:29;;;;;;;0.50;0.50;;;10.60;99.90;;;;;;6161696;23;20075;-89
2023/01/14 19:29:09;;;;;;;0.00;0.00;;;10.60;99.90;;;;;;6100862;23;20025;-90
2023/01/14 19:32:39;;;;;;;;;;;;;;;;;;;;;
2023/01/14 19:36:00;;;;;;;;;;;;;;;;;;;;;
2023/01/14 19:59:01;;;;;;;;;;;;;;;;;;;;;
2023/01/14 20:01:34;;;;;;;0.00;0.00;;;9.80;99.90;;;;;;6136875;23;20152;-87
2023/01/14 20:04:10;;;;;;;0.00;0.00;;;9.40;99.90;;;;;;6134594;23;20027;-88
2023/01/14 20:06:38;;;;;;;0.20;0.20;;;9.00;99.90;;;;;;6132533;23;20025;-87
2023/01/14 20:09:45;;;;;;;0.00;0.00;;;8.80;99.90;;;;;;6139214;23;20451;-87
2023/01/14 20:12:57;;;;;;;0.00;0.00;;;8.60;99.90;;;;;;6176775;23;20026;-91
2023/01/14 20:16:25;;;;;;;;;;;;;;;;;;;;;
2023/01/14 20:23:18;;;;;;;;;;;;;;;;;;;;;
2023/01/14 20:26:16;;;;;;;;;;;;;;;;;;;;;
2023/01/14 20:29:09;;;;;;;0.20;0.20;;;8.00;99.90;;;;;;6156596;23;20013;-87
2023/01/14 20:32:07;;;;;;;;;;;;;;;;;;;;;
2023/01/14 20:38:29;;;;;;;0.00;0.00;;;7.90;99.90;;;;;;6146703;23;20105;-87
2023/01/14 20:42:15;;;;;;;0.00;0.00;;;7.80;99.90;;;;;;6135382;23;20049;-87
2023/01/14 20:49:04;;;;;;;;;;;;;;;;;;;;;
2023/01/14 20:55:39;;;;;;;;;;;;;;;;;;;;;
2023/01/14 21:03:22;;;;;;;;;;;;;;;;;;;;;
2023/01/14 21:29:07;;;;;;;;;;;;;;;;;;;;;
2023/01/14 21:50:10;;;;;;;;;;;;;;;;;;;;;
2023/01/14 21:52:55;;;;;;;;;;;;;;;;;;;;;
2023/01/14 21:56:05;;;;;;;;;;;;;;;;;;;;;
2023/01/14 21:59:07;;;;;;;0.00;0.00;;;7.30;99.90;;;;;;6109209;23;20036;-91
2023/01/14 22:02:24;;;;;;;;;;;;;;;;;;;;;
2023/01/14 22:08:36;;;;;;;0.00;0.00;;;7.20;99.90;;;;;;6150194;23;20025;-92
2023/01/14 22:21:01;;;;;;;0.00;0.00;;;7.10;99.90;;;;;;6012870;23;20038;-92
2023/01/14 22:24:18;;;;;;;;;;;;;;;;;;;;;
2023/01/14 22:34:25;;;;;;;0.00;0.00;;;7.10;99.90;;;;;;5986912;23;20490;-92
2023/01/14 22:40:50;;;;;;;0.00;0.00;;;7.10;99.90;;;;;;6143901;23;20101;-92
2023/01/14 22:47:10;;;;;;;0.08;0.08;;;7.20;99.90;;;;;;6078392;23;20022;-92
2023/01/14 23:00:14;;;;;;;0.00;0.00;;;7.00;99.90;;;;;;6087482;23;20032;-91
2023/01/14 23:10:06;;;;;;;;;;;;;;;;;;;;;
2023/01/14 23:29:39;;;;;;;;;;;;;;;;;;;;;
2023/01/14 23:32:45;;;;;;;0.50;0.13;;;7.00;99.90;;;;;;6162292;23;20096;-91
2023/01/14 23:38:30;;;;;;;0.00;0.00;;;7.20;99.90;;;;;;6133538;23;20023;-92
2023/01/14 23:41:16;;;;;;;0.00;0.00;;;7.00;99.90;;;;;;6117324;23;20017;-91
2023/01/14 23:44:22;;;;;;;;;;;;;;;;;;;;;
2023/01/14 23:50:19;;;;;;;;;;;;;;;;;;;;;
2023/01/14 23:53:10;;;;;;;0.00;0.00;;;7.00;99.90;;;;;;6141093;23;20072;-91
2023/01/14 23:58:54;;;;;;;;;;;;;;;;;;;;;
